sensor_id;sensor_type;location;lat;lon;timestamp;P1;durP1;ratioP1;P2;durP2;ratioP2
80510;SDS011;69840;53.040;8.600;2023-05-20T00:01:45;2.17;;;0.93;;
80510;SDS011;69840;53.040;8.600;2023-05-20T00:05:58;3.65;;;1.15;;
80510;SDS011;69840;53.040;8.600;2023-05-20T00:10:10;5.78;;;0.52;;
80510;SDS011;69840;53.040;8.600;2023-05-20T00:14:23;1.50;;;0.90;;
80510;SDS011;69840;53.040;8.600;2023-05-20T00:18:35;2.65;;;0.65;;
80510;SDS011;69840;53.040;8.600;2023-05-20T00:22:48;5.43;;;0.73;;
80510;SDS011;69840;53.040;8.600;2023-05-20T00:27:00;2.75;;;1.17;;
80510;SDS011;69840;53.040;8.600;2023-05-20T00:31:12;1.75;;;0.80;;
80510;SDS011;69840;53.040;8.600;2023-05-20T00:35:25;7.15;;;0.77;;
80510;SDS011;69840;53.040;8.600;2023-05-20T00:39:38;1.13;;;0.75;;
80510;SDS011;69840;53.040;8.600;2023-05-20T00:43:53;0.98;;;0.60;;
80510;SDS011;69840;53.040;8.600;2023-05-20T00:48:06;3.08;;;0.65;;
80510;SDS011;69840;53.040;8.600;2023-05-20T00:52:19;2.55;;;0.45;;
80510;SDS011;69840;53.040;8.600;2023-05-20T00:56:32;1.05;;;0.70;;
80510;SDS011;69840;53.040;8.600;2023-05-20T01:00:44;2.83;;;1.23;;
80510;SDS011;69840;53.040;8.600;2023-05-20T01:04:57;0.90;;;0.60;;
80510;SDS011;69840;53.040;8.600;2023-05-20T01:09:10;1.88;;;0.63;;
80510;SDS011;69840;53.040;8.600;2023-05-20T01:13:25;1.55;;;0.60;;
80510;SDS011;69840;53.040;8.600;2023-05-20T01:17:45;2.13;;;0.60;;
80510;SDS011;69840;53.040;8.600;2023-05-20T01:22:02;4.07;;;0.57;;
80510;SDS011;69840;53.040;8.600;2023-05-20T01:26:17;5.38;;;1.25;;
80510;SDS011;69840;53.040;8.600;2023-05-20T01:30:32;0.80;;;0.43;;
80510;SDS011;69840;53.040;8.600;2023-05-20T01:34:48;1.00;;;0.60;;
80510;SDS011;69840;53.040;8.600;2023-05-20T01:39:02;1.38;;;0.65;;
80510;SDS011;69840;53.040;8.600;2023-05-20T01:43:14;3.53;;;0.50;;
80510;SDS011;69840;53.040;8.600;2023-05-20T01:47:28;1.75;;;0.57;;
80510;SDS011;69840;53.040;8.600;2023-05-20T01:51:41;2.05;;;0.98;;
80510;SDS011;69840;53.040;8.600;2023-05-20T01:55:53;1.73;;;0.77;;
80510;SDS011;69840;53.040;8.600;2023-05-20T02:00:06;1.67;;;0.88;;
80510;SDS011;69840;53.040;8.600;2023-05-20T02:04:25;1.60;;;0.70;;
80510;SDS011;69840;53.040;8.600;2023-05-20T02:08:38;1.85;;;0.75;;
80510;SDS011;69840;53.040;8.600;2023-05-20T02:12:50;1.67;;;0.80;;
80510;SDS011;69840;53.040;8.600;2023-05-20T02:17:03;1.60;;;0.95;;
80510;SDS011;69840;53.040;8.600;2023-05-20T02:21:15;1.77;;;0.73;;
80510;SDS011;69840;53.040;8.600;2023-05-20T02:25:28;1.27;;;0.90;;
80510;SDS011;69840;53.040;8.600;2023-05-20T02:29:41;1.48;;;0.55;;
80510;SDS011;69840;53.040;8.600;2023-05-20T02:33:55;1.17;;;0.70;;
80510;SDS011;69840;53.040;8.600;2023-05-20T02:38:09;2.03;;;0.75;;
80510;SDS011;69840;53.040;8.600;2023-05-20T02:42:24;2.50;;;0.88;;
80510;SDS011;69840;53.040;8.600;2023-05-20T02:46:37;1.48;;;0.77;;
80510;SDS011;69840;53.040;8.600;2023-05-20T02:50:49;1.98;;;1.25;;
80510;SDS011;69840;53.040;8.600;2023-05-20T02:55:02;4.80;;;0.95;;
80510;SDS011;69840;53.040;8.600;2023-05-20T02:59:15;7.05;;;0.57;;
80510;SDS011;69840;53.040;8.600;2023-05-20T03:03:27;1.50;;;0.70;;
80510;SDS011;69840;53.040;8.600;2023-05-20T03:07:40;1.00;;;0.70;;
80510;SDS011;69840;53.040;8.600;2023-05-20T03:11:53;1.20;;;0.90;;
80510;SDS011;69840;53.040;8.600;2023-05-20T03:16:05;2.17;;;0.88;;
80510;SDS011;69840;53.040;8.600;2023-05-20T03:20:18;1.90;;;0.88;;
80510;SDS011;69840;53.040;8.600;2023-05-20T03:24:31;1.65;;;0.90;;
80510;SDS011;69840;53.040;8.600;2023-05-20T03:28:44;3.33;;;1.13;;
80510;SDS011;69840;53.040;8.600;2023-05-20T03:32:57;1.60;;;0.93;;
80510;SDS011;69840;53.040;8.600;2023-05-20T03:37:10;1.35;;;0.88;;
80510;SDS011;69840;53.040;8.600;2023-05-20T03:41:23;3.50;;;1.23;;
80510;SDS011;69840;53.040;8.600;2023-05-20T03:45:35;2.88;;;1.00;;
80510;SDS011;69840;53.040;8.600;2023-05-20T03:49:50;2.08;;;1.13;;
80510;SDS011;69840;53.040;8.600;2023-05-20T03:54:03;2.00;;;0.70;;
80510;SDS011;69840;53.040;8.600;2023-05-20T03:58:16;2.60;;;0.82;;
80510;SDS011;69840;53.040;8.600;2023-05-20T04:02:29;1.13;;;0.55;;
80510;SDS011;69840;53.040;8.600;2023-05-20T04:06:41;2.80;;;0.80;;
80510;SDS011;69840;53.040;8.600;2023-05-20T04:10:54;2.78;;;0.93;;
80510;SDS011;69840;53.040;8.600;2023-05-20T04:15:08;3.90;;;1.10;;
80510;SDS011;69840;53.040;8.600;2023-05-20T04:19:30;1.85;;;0.98;;
80510;SDS011;69840;53.040;8.600;2023-05-20T04:23:42;1.65;;;0.60;;
80510;SDS011;69840;53.040;8.600;2023-05-20T04:27:55;1.20;;;0.75;;
80510;SDS011;69840;53.040;8.600;2023-05-20T04:32:08;3.17;;;0.85;;
80510;SDS011;69840;53.040;8.600;2023-05-20T04:36:21;1.50;;;0.80;;
80510;SDS011;69840;53.040;8.600;2023-05-20T04:40:34;2.30;;;1.30;;
80510;SDS011;69840;53.040;8.600;2023-05-20T04:44:47;1.65;;;0.95;;
80510;SDS011;69840;53.040;8.600;2023-05-20T04:49:00;1.90;;;1.00;;
80510;SDS011;69840;53.040;8.600;2023-05-20T04:53:12;3.33;;;1.15;;
80510;SDS011;69840;53.040;8.600;2023-05-20T04:57:25;2.28;;;0.90;;
80510;SDS011;69840;53.040;8.600;2023-05-20T05:01:37;2.25;;;0.90;;
80510;SDS011;69840;53.040;8.600;2023-05-20T05:05:50;2.60;;;1.08;;
80510;SDS011;69840;53.040;8.600;2023-05-20T05:10:07;5.72;;;1.65;;
80510;SDS011;69840;53.040;8.600;2023-05-20T05:14:20;3.00;;;1.17;;
80510;SDS011;69840;53.040;8.600;2023-05-20T05:18:33;4.13;;;0.80;;
80510;SDS011;69840;53.040;8.600;2023-05-20T05:22:46;1.60;;;1.00;;
80510;SDS011;69840;53.040;8.600;2023-05-20T05:26:59;1.63;;;0.55;;
80510;SDS011;69840;53.040;8.600;2023-05-20T05:31:12;1.42;;;0.80;;
80510;SDS011;69840;53.040;8.600;2023-05-20T05:35:24;2.90;;;0.80;;
80510;SDS011;69840;53.040;8.600;2023-05-20T05:39:37;3.45;;;0.52;;
80510;SDS011;69840;53.040;8.600;2023-05-20T05:43:50;2.20;;;1.20;;
80510;SDS011;69840;53.040;8.600;2023-05-20T05:48:03;2.40;;;1.20;;
80510;SDS011;69840;53.040;8.600;2023-05-20T05:52:16;2.05;;;0.80;;
80510;SDS011;69840;53.040;8.600;2023-05-20T05:56:29;1.58;;;0.70;;
80510;SDS011;69840;53.040;8.600;2023-05-20T06:00:42;1.92;;;1.10;;
80510;SDS011;69840;53.040;8.600;2023-05-20T06:04:55;1.92;;;0.82;;
80510;SDS011;69840;53.040;8.600;2023-05-20T06:09:08;2.33;;;1.00;;
80510;SDS011;69840;53.040;8.600;2023-05-20T06:13:21;2.90;;;1.05;;
80510;SDS011;69840;53.040;8.600;2023-05-20T06:17:34;1.95;;;0.93;;
80510;SDS011;69840;53.040;8.600;2023-05-20T06:21:47;2.60;;;1.00;;
80510;SDS011;69840;53.040;8.600;2023-05-20T06:25:59;1.42;;;0.90;;
80510;SDS011;69840;53.040;8.600;2023-05-20T06:30:13;1.83;;;0.93;;
80510;SDS011;69840;53.040;8.600;2023-05-20T06:34:25;1.80;;;0.85;;
80510;SDS011;69840;53.040;8.600;2023-05-20T06:38:38;4.05;;;1.13;;
80510;SDS011;69840;53.040;8.600;2023-05-20T06:42:51;2.78;;;1.50;;
80510;SDS011;69840;53.040;8.600;2023-05-20T06:47:13;1.83;;;0.98;;
80510;SDS011;69840;53.040;8.600;2023-05-20T06:51:31;3.20;;;1.33;;
80510;SDS011;69840;53.040;8.600;2023-05-20T06:55:45;2.92;;;1.00;;
80510;SDS011;69840;53.040;8.600;2023-05-20T06:59:57;2.33;;;1.00;;
80510;SDS011;69840;53.040;8.600;2023-05-20T07:04:10;15.02;;;1.58;;
80510;SDS011;69840;53.040;8.600;2023-05-20T07:08:23;3.88;;;1.40;;
80510;SDS011;69840;53.040;8.600;2023-05-20T07:12:35;5.15;;;1.40;;
80510;SDS011;69840;53.040;8.600;2023-05-20T07:16:49;2.65;;;1.15;;
80510;SDS011;69840;53.040;8.600;2023-05-20T07:21:01;3.83;;;1.52;;
80510;SDS011;69840;53.040;8.600;2023-05-20T07:25:33;3.72;;;1.20;;
80510;SDS011;69840;53.040;8.600;2023-05-20T07:29:46;3.53;;;1.45;;
80510;SDS011;69840;53.040;8.600;2023-05-20T07:33:59;2.42;;;1.10;;
80510;SDS011;69840;53.040;8.600;2023-05-20T07:38:11;2.38;;;1.10;;
80510;SDS011;69840;53.040;8.600;2023-05-20T07:42:24;2.75;;;1.23;;
80510;SDS011;69840;53.040;8.600;2023-05-20T07:46:42;1.75;;;1.20;;
80510;SDS011;69840;53.040;8.600;2023-05-20T07:50:55;1.98;;;1.33;;
80510;SDS011;69840;53.040;8.600;2023-05-20T07:55:08;3.95;;;1.05;;
80510;SDS011;69840;53.040;8.600;2023-05-20T07:59:21;3.53;;;1.52;;
80510;SDS011;69840;53.040;8.600;2023-05-20T08:03:35;4.45;;;1.73;;
80510;SDS011;69840;53.040;8.600;2023-05-20T08:07:52;2.90;;;1.30;;
80510;SDS011;69840;53.040;8.600;2023-05-20T08:12:08;3.20;;;1.73;;
80510;SDS011;69840;53.040;8.600;2023-05-20T08:16:20;4.10;;;1.40;;
80510;SDS011;69840;53.040;8.600;2023-05-20T08:20:33;5.10;;;1.60;;
80510;SDS011;69840;53.040;8.600;2023-05-20T08:24:46;4.13;;;1.40;;
80510;SDS011;69840;53.040;8.600;2023-05-20T08:28:59;3.45;;;1.75;;
80510;SDS011;69840;53.040;8.600;2023-05-20T08:33:13;3.70;;;1.98;;
80510;SDS011;69840;53.040;8.600;2023-05-20T08:37:26;7.05;;;2.53;;
80510;SDS011;69840;53.040;8.600;2023-05-20T08:41:40;3.28;;;1.80;;
80510;SDS011;69840;53.040;8.600;2023-05-20T08:45:53;2.83;;;1.05;;
80510;SDS011;69840;53.040;8.600;2023-05-20T08:50:08;7.28;;;1.83;;
80510;SDS011;69840;53.040;8.600;2023-05-20T08:54:21;1.73;;;1.27;;
80510;SDS011;69840;53.040;8.600;2023-05-20T08:58:35;2.58;;;1.13;;
80510;SDS011;69840;53.040;8.600;2023-05-20T09:02:48;3.83;;;1.58;;
80510;SDS011;69840;53.040;8.600;2023-05-20T09:07:00;2.05;;;1.17;;
80510;SDS011;69840;53.040;8.600;2023-05-20T09:11:13;2.38;;;1.38;;
80510;SDS011;69840;53.040;8.600;2023-05-20T09:15:25;2.38;;;1.65;;
80510;SDS011;69840;53.040;8.600;2023-05-20T09:19:38;3.05;;;1.40;;
80510;SDS011;69840;53.040;8.600;2023-05-20T09:23:50;2.17;;;1.98;;
80510;SDS011;69840;53.040;8.600;2023-05-20T09:28:04;1.80;;;1.13;;
80510;SDS011;69840;53.040;8.600;2023-05-20T09:32:19;2.40;;;1.25;;
80510;SDS011;69840;53.040;8.600;2023-05-20T09:36:33;5.70;;;1.13;;
80510;SDS011;69840;53.040;8.600;2023-05-20T09:40:46;2.38;;;0.80;;
80510;SDS011;69840;53.040;8.600;2023-05-20T09:44:59;3.03;;;1.00;;
80510;SDS011;69840;53.040;8.600;2023-05-20T09:49:13;1.73;;;1.00;;
80510;SDS011;69840;53.040;8.600;2023-05-20T09:53:27;2.53;;;0.90;;
80510;SDS011;69840;53.040;8.600;2023-05-20T09:57:40;2.72;;;1.15;;
80510;SDS011;69840;53.040;8.600;2023-05-20T10:01:53;4.18;;;1.02;;
80510;SDS011;69840;53.040;8.600;2023-05-20T10:10:40;6.00;;;1.00;;
80510;SDS011;69840;53.040;8.600;2023-05-20T10:19:33;1.85;;;0.88;;
80510;SDS011;69840;53.040;8.600;2023-05-20T10:23:46;4.63;;;0.93;;
80510;SDS011;69840;53.040;8.600;2023-05-20T10:28:06;1.70;;;1.02;;
80510;SDS011;69840;53.040;8.600;2023-05-20T10:32:26;2.10;;;1.00;;
80510;SDS011;69840;53.040;8.600;2023-05-20T10:36:43;4.95;;;1.23;;
80510;SDS011;69840;53.040;8.600;2023-05-20T10:41:08;2.30;;;1.13;;
80510;SDS011;69840;53.040;8.600;2023-05-20T10:45:25;2.72;;;1.15;;
80510;SDS011;69840;53.040;8.600;2023-05-20T10:49:40;1.77;;;1.13;;
80510;SDS011;69840;53.040;8.600;2023-05-20T10:53:55;2.10;;;0.90;;
80510;SDS011;69840;53.040;8.600;2023-05-20T10:58:08;1.38;;;0.70;;
80510;SDS011;69840;53.040;8.600;2023-05-20T11:02:21;2.67;;;1.08;;
80510;SDS011;69840;53.040;8.600;2023-05-20T11:06:34;2.00;;;1.10;;
80510;SDS011;69840;53.040;8.600;2023-05-20T11:10:46;3.38;;;1.30;;
80510;SDS011;69840;53.040;8.600;2023-05-20T11:14:59;3.22;;;1.20;;
80510;SDS011;69840;53.040;8.600;2023-05-20T11:19:16;3.55;;;0.95;;
80510;SDS011;69840;53.040;8.600;2023-05-20T11:23:28;3.55;;;1.58;;
80510;SDS011;69840;53.040;8.600;2023-05-20T11:27:41;1.63;;;0.73;;
80510;SDS011;69840;53.040;8.600;2023-05-20T11:31:54;1.75;;;0.93;;
80510;SDS011;69840;53.040;8.600;2023-05-20T11:36:08;2.67;;;0.98;;
80510;SDS011;69840;53.040;8.600;2023-05-20T11:40:28;3.10;;;0.65;;
80510;SDS011;69840;53.040;8.600;2023-05-20T11:44:44;1.60;;;1.25;;
80510;SDS011;69840;53.040;8.600;2023-05-20T11:48:56;1.80;;;0.82;;
80510;SDS011;69840;53.040;8.600;2023-05-20T11:53:10;2.22;;;0.88;;
80510;SDS011;69840;53.040;8.600;2023-05-20T11:57:26;4.60;;;1.55;;
80510;SDS011;69840;53.040;8.600;2023-05-20T12:01:38;3.83;;;1.02;;
80510;SDS011;69840;53.040;8.600;2023-05-20T12:05:51;3.38;;;1.00;;
80510;SDS011;69840;53.040;8.600;2023-05-20T12:10:04;2.35;;;1.10;;
80510;SDS011;69840;53.040;8.600;2023-05-20T12:14:17;1.55;;;0.63;;
80510;SDS011;69840;53.040;8.600;2023-05-20T12:18:30;1.10;;;0.70;;
80510;SDS011;69840;53.040;8.600;2023-05-20T12:22:43;2.30;;;1.25;;
80510;SDS011;69840;53.040;8.600;2023-05-20T12:26:56;1.38;;;0.80;;
80510;SDS011;69840;53.040;8.600;2023-05-20T12:31:09;1.67;;;1.15;;
80510;SDS011;69840;53.040;8.600;2023-05-20T12:35:25;1.92;;;1.13;;
80510;SDS011;69840;53.040;8.600;2023-05-20T12:39:47;1.52;;;0.88;;
80510;SDS011;69840;53.040;8.600;2023-05-20T12:44:00;1.48;;;1.20;;
80510;SDS011;69840;53.040;8.600;2023-05-20T12:48:12;3.40;;;1.00;;
80510;SDS011;69840;53.040;8.600;2023-05-20T12:52:25;1.75;;;0.90;;
80510;SDS011;69840;53.040;8.600;2023-05-20T12:56:38;3.13;;;0.90;;
80510;SDS011;69840;53.040;8.600;2023-05-20T13:00:50;2.22;;;1.30;;
80510;SDS011;69840;53.040;8.600;2023-05-20T13:05:03;5.40;;;1.80;;
80510;SDS011;69840;53.040;8.600;2023-05-20T13:09:17;5.47;;;1.92;;
80510;SDS011;69840;53.040;8.600;2023-05-20T13:13:29;4.55;;;1.60;;
80510;SDS011;69840;53.040;8.600;2023-05-20T13:17:42;7.60;;;4.43;;
80510;SDS011;69840;53.040;8.600;2023-05-20T13:21:54;6.22;;;4.63;;
80510;SDS011;69840;53.040;8.600;2023-05-20T13:26:07;1.90;;;1.23;;
80510;SDS011;69840;53.040;8.600;2023-05-20T13:30:20;2.67;;;1.17;;
80510;SDS011;69840;53.040;8.600;2023-05-20T13:34:32;2.58;;;1.30;;
80510;SDS011;69840;53.040;8.600;2023-05-20T13:38:45;4.90;;;2.08;;
80510;SDS011;69840;53.040;8.600;2023-05-20T13:42:57;3.30;;;2.20;;
80510;SDS011;69840;53.040;8.600;2023-05-20T13:47:10;2.35;;;1.83;;
80510;SDS011;69840;53.040;8.600;2023-05-20T13:51:22;2.40;;;1.00;;
80510;SDS011;69840;53.040;8.600;2023-05-20T13:55:35;2.00;;;1.10;;
80510;SDS011;69840;53.040;8.600;2023-05-20T13:59:47;2.97;;;1.60;;
80510;SDS011;69840;53.040;8.600;2023-05-20T14:04:00;2.75;;;1.42;;
80510;SDS011;69840;53.040;8.600;2023-05-20T14:08:12;1.33;;;1.00;;
80510;SDS011;69840;53.040;8.600;2023-05-20T14:12:25;1.92;;;1.20;;
80510;SDS011;69840;53.040;8.600;2023-05-20T14:16:37;1.33;;;0.75;;
80510;SDS011;69840;53.040;8.600;2023-05-20T14:20:50;2.55;;;0.90;;
80510;SDS011;69840;53.040;8.600;2023-05-20T14:25:02;3.67;;;1.50;;
80510;SDS011;69840;53.040;8.600;2023-05-20T14:29:15;4.90;;;1.15;;
80510;SDS011;69840;53.040;8.600;2023-05-20T14:33:28;2.30;;;1.10;;
80510;SDS011;69840;53.040;8.600;2023-05-20T14:37:40;1.63;;;1.20;;
80510;SDS011;69840;53.040;8.600;2023-05-20T14:41:53;1.77;;;0.85;;
80510;SDS011;69840;53.040;8.600;2023-05-20T14:46:05;2.05;;;1.10;;
80510;SDS011;69840;53.040;8.600;2023-05-20T14:50:18;4.53;;;1.10;;
80510;SDS011;69840;53.040;8.600;2023-05-20T14:54:30;2.00;;;1.15;;
80510;SDS011;69840;53.040;8.600;2023-05-20T14:58:43;1.88;;;1.08;;
80510;SDS011;69840;53.040;8.600;2023-05-20T15:02:56;1.73;;;0.98;;
80510;SDS011;69840;53.040;8.600;2023-05-20T15:07:08;2.58;;;1.00;;
80510;SDS011;69840;53.040;8.600;2023-05-20T15:11:21;2.65;;;1.00;;
80510;SDS011;69840;53.040;8.600;2023-05-20T15:15:33;2.17;;;1.17;;
80510;SDS011;69840;53.040;8.600;2023-05-20T15:19:46;1.85;;;1.48;;
80510;SDS011;69840;53.040;8.600;2023-05-20T15:23:58;1.55;;;0.93;;
80510;SDS011;69840;53.040;8.600;2023-05-20T15:28:11;13.90;;;7.57;;
80510;SDS011;69840;53.040;8.600;2023-05-20T15:32:23;4.10;;;2.20;;
80510;SDS011;69840;53.040;8.600;2023-05-20T15:36:36;3.63;;;1.58;;
80510;SDS011;69840;53.040;8.600;2023-05-20T15:40:48;2.58;;;1.30;;
80510;SDS011;69840;53.040;8.600;2023-05-20T15:45:01;2.50;;;1.20;;
80510;SDS011;69840;53.040;8.600;2023-05-20T15:49:13;4.45;;;2.55;;
80510;SDS011;69840;53.040;8.600;2023-05-20T15:53:26;4.15;;;1.48;;
80510;SDS011;69840;53.040;8.600;2023-05-20T15:57:39;4.13;;;1.98;;
80510;SDS011;69840;53.040;8.600;2023-05-20T16:01:51;3.10;;;1.65;;
80510;SDS011;69840;53.040;8.600;2023-05-20T16:06:04;3.53;;;1.80;;
80510;SDS011;69840;53.040;8.600;2023-05-20T16:10:16;6.10;;;1.83;;
80510;SDS011;69840;53.040;8.600;2023-05-20T16:14:29;3.05;;;1.80;;
80510;SDS011;69840;53.040;8.600;2023-05-20T16:18:41;3.88;;;1.90;;
80510;SDS011;69840;53.040;8.600;2023-05-20T16:22:54;3.78;;;2.00;;
80510;SDS011;69840;53.040;8.600;2023-05-20T16:27:07;3.70;;;1.55;;
80510;SDS011;69840;53.040;8.600;2023-05-20T16:31:19;4.15;;;2.03;;
80510;SDS011;69840;53.040;8.600;2023-05-20T16:35:32;3.25;;;1.52;;
80510;SDS011;69840;53.040;8.600;2023-05-20T16:39:45;3.00;;;1.63;;
80510;SDS011;69840;53.040;8.600;2023-05-20T16:43:57;4.25;;;2.20;;
80510;SDS011;69840;53.040;8.600;2023-05-20T16:48:10;5.15;;;1.80;;
80510;SDS011;69840;53.040;8.600;2023-05-20T16:52:22;4.18;;;1.90;;
80510;SDS011;69840;53.040;8.600;2023-05-20T16:56:35;6.10;;;1.92;;
80510;SDS011;69840;53.040;8.600;2023-05-20T17:00:47;6.43;;;1.60;;
80510;SDS011;69840;53.040;8.600;2023-05-20T17:05:00;12.95;;;4.07;;
80510;SDS011;69840;53.040;8.600;2023-05-20T17:09:13;14.52;;;5.47;;
80510;SDS011;69840;53.040;8.600;2023-05-20T17:13:25;4.60;;;2.20;;
80510;SDS011;69840;53.040;8.600;2023-05-20T17:17:38;4.35;;;1.73;;
80510;SDS011;69840;53.040;8.600;2023-05-20T17:21:51;5.07;;;1.85;;
80510;SDS011;69840;53.040;8.600;2023-05-20T17:26:04;3.25;;;1.88;;
80510;SDS011;69840;53.040;8.600;2023-05-20T17:30:16;2.65;;;1.80;;
80510;SDS011;69840;53.040;8.600;2023-05-20T17:34:29;3.78;;;2.67;;
80510;SDS011;69840;53.040;8.600;2023-05-20T17:38:41;3.85;;;2.10;;
80510;SDS011;69840;53.040;8.600;2023-05-20T17:42:54;2.55;;;1.33;;
80510;SDS011;69840;53.040;8.600;2023-05-20T17:47:06;2.90;;;1.88;;
80510;SDS011;69840;53.040;8.600;2023-05-20T17:51:19;3.35;;;1.83;;
80510;SDS011;69840;53.040;8.600;2023-05-20T17:55:32;3.60;;;1.50;;
80510;SDS011;69840;53.040;8.600;2023-05-20T17:59:45;4.00;;;2.25;;
80510;SDS011;69840;53.040;8.600;2023-05-20T18:03:57;2.75;;;1.70;;
80510;SDS011;69840;53.040;8.600;2023-05-20T18:08:10;3.13;;;1.60;;
80510;SDS011;69840;53.040;8.600;2023-05-20T18:12:23;4.75;;;1.73;;
80510;SDS011;69840;53.040;8.600;2023-05-20T18:16:35;3.30;;;2.20;;
80510;SDS011;69840;53.040;8.600;2023-05-20T18:20:48;3.67;;;2.65;;
80510;SDS011;69840;53.040;8.600;2023-05-20T18:25:00;3.08;;;1.95;;
80510;SDS011;69840;53.040;8.600;2023-05-20T18:29:13;3.80;;;2.05;;
80510;SDS011;69840;53.040;8.600;2023-05-20T18:33:25;3.90;;;1.70;;
80510;SDS011;69840;53.040;8.600;2023-05-20T18:37:38;3.55;;;1.75;;
80510;SDS011;69840;53.040;8.600;2023-05-20T18:41:51;2.58;;;1.77;;
80510;SDS011;69840;53.040;8.600;2023-05-20T18:46:03;2.55;;;1.50;;
80510;SDS011;69840;53.040;8.600;2023-05-20T18:50:16;9.90;;;2.75;;
80510;SDS011;69840;53.040;8.600;2023-05-20T18:54:29;8.38;;;4.13;;
80510;SDS011;69840;53.040;8.600;2023-05-20T18:58:42;4.60;;;1.83;;
80510;SDS011;69840;53.040;8.600;2023-05-20T19:02:55;2.92;;;1.58;;
80510;SDS011;69840;53.040;8.600;2023-05-20T19:07:08;4.80;;;1.75;;
80510;SDS011;69840;53.040;8.600;2023-05-20T19:11:22;4.38;;;1.67;;
80510;SDS011;69840;53.040;8.600;2023-05-20T19:15:34;2.88;;;1.52;;
80510;SDS011;69840;53.040;8.600;2023-05-20T19:19:47;2.28;;;1.40;;
80510;SDS011;69840;53.040;8.600;2023-05-20T19:24:00;2.03;;;1.25;;
80510;SDS011;69840;53.040;8.600;2023-05-20T19:28:13;3.05;;;1.40;;
80510;SDS011;69840;53.040;8.600;2023-05-20T19:32:25;4.07;;;1.80;;
80510;SDS011;69840;53.040;8.600;2023-05-20T19:36:38;6.97;;;2.58;;
80510;SDS011;69840;53.040;8.600;2023-05-20T19:40:52;3.65;;;1.98;;
80510;SDS011;69840;53.040;8.600;2023-05-20T19:45:04;3.45;;;1.83;;
80510;SDS011;69840;53.040;8.600;2023-05-20T19:49:17;6.35;;;1.70;;
80510;SDS011;69840;53.040;8.600;2023-05-20T19:53:30;3.00;;;2.00;;
80510;SDS011;69840;53.040;8.600;2023-05-20T19:57:42;2.97;;;1.70;;
80510;SDS011;69840;53.040;8.600;2023-05-20T20:01:55;4.45;;;1.65;;
80510;SDS011;69840;53.040;8.600;2023-05-20T20:06:08;3.10;;;1.63;;
80510;SDS011;69840;53.040;8.600;2023-05-20T20:10:21;3.17;;;1.85;;
80510;SDS011;69840;53.040;8.600;2023-05-20T20:14:34;4.25;;;2.05;;
80510;SDS011;69840;53.040;8.600;2023-05-20T20:18:47;3.10;;;1.90;;
80510;SDS011;69840;53.040;8.600;2023-05-20T20:22:59;3.65;;;1.85;;
80510;SDS011;69840;53.040;8.600;2023-05-20T20:27:12;3.45;;;1.73;;
80510;SDS011;69840;53.040;8.600;2023-05-20T20:31:24;3.22;;;1.70;;
80510;SDS011;69840;53.040;8.600;2023-05-20T20:35:37;4.32;;;2.25;;
80510;SDS011;69840;53.040;8.600;2023-05-20T20:39:50;4.25;;;1.88;;
80510;SDS011;69840;53.040;8.600;2023-05-20T20:44:02;3.97;;;2.30;;
80510;SDS011;69840;53.040;8.600;2023-05-20T20:48:15;3.40;;;1.67;;
80510;SDS011;69840;53.040;8.600;2023-05-20T20:52:27;5.40;;;2.80;;
80510;SDS011;69840;53.040;8.600;2023-05-20T20:56:41;6.70;;;2.38;;
80510;SDS011;69840;53.040;8.600;2023-05-20T21:00:53;5.00;;;2.22;;
80510;SDS011;69840;53.040;8.600;2023-05-20T21:05:06;4.68;;;2.28;;
80510;SDS011;69840;53.040;8.600;2023-05-20T21:09:19;3.00;;;1.92;;
80510;SDS011;69840;53.040;8.600;2023-05-20T21:13:31;6.72;;;2.72;;
80510;SDS011;69840;53.040;8.600;2023-05-20T21:17:44;4.28;;;2.40;;
80510;SDS011;69840;53.040;8.600;2023-05-20T21:21:56;3.72;;;2.80;;
80510;SDS011;69840;53.040;8.600;2023-05-20T21:26:09;2.97;;;2.05;;
80510;SDS011;69840;53.040;8.600;2023-05-20T21:30:21;5.82;;;1.92;;
80510;SDS011;69840;53.040;8.600;2023-05-20T21:34:34;7.00;;;2.63;;
80510;SDS011;69840;53.040;8.600;2023-05-20T21:38:46;4.15;;;2.42;;
80510;SDS011;69840;53.040;8.600;2023-05-20T21:42:59;4.00;;;2.55;;
80510;SDS011;69840;53.040;8.600;2023-05-20T21:47:11;5.28;;;3.00;;
80510;SDS011;69840;53.040;8.600;2023-05-20T21:51:24;4.78;;;2.30;;
80510;SDS011;69840;53.040;8.600;2023-05-20T21:55:36;6.13;;;2.55;;
80510;SDS011;69840;53.040;8.600;2023-05-20T21:59:49;3.80;;;1.90;;
80510;SDS011;69840;53.040;8.600;2023-05-20T22:04:02;4.30;;;2.58;;
80510;SDS011;69840;53.040;8.600;2023-05-20T22:08:14;3.88;;;2.22;;
80510;SDS011;69840;53.040;8.600;2023-05-20T22:12:27;4.22;;;2.40;;
80510;SDS011;69840;53.040;8.600;2023-05-20T22:16:39;3.35;;;2.15;;
80510;SDS011;69840;53.040;8.600;2023-05-20T22:20:52;4.72;;;2.33;;
80510;SDS011;69840;53.040;8.600;2023-05-20T22:25:05;3.05;;;2.47;;
80510;SDS011;69840;53.040;8.600;2023-05-20T22:29:18;5.32;;;3.00;;
80510;SDS011;69840;53.040;8.600;2023-05-20T22:33:30;4.28;;;2.47;;
80510;SDS011;69840;53.040;8.600;2023-05-20T22:37:43;5.88;;;2.60;;
80510;SDS011;69840;53.040;8.600;2023-05-20T22:41:58;5.35;;;3.83;;
80510;SDS011;69840;53.040;8.600;2023-05-20T22:46:11;8.98;;;3.20;;
80510;SDS011;69840;53.040;8.600;2023-05-20T22:50:23;5.38;;;2.90;;
80510;SDS011;69840;53.040;8.600;2023-05-20T22:54:36;4.68;;;2.28;;
80510;SDS011;69840;53.040;8.600;2023-05-20T22:58:49;4.03;;;2.22;;
80510;SDS011;69840;53.040;8.600;2023-05-20T23:03:02;5.30;;;3.10;;
80510;SDS011;69840;53.040;8.600;2023-05-20T23:07:14;6.03;;;3.40;;
80510;SDS011;69840;53.040;8.600;2023-05-20T23:11:27;7.35;;;3.13;;
80510;SDS011;69840;53.040;8.600;2023-05-20T23:15:39;4.82;;;3.25;;
80510;SDS011;69840;53.040;8.600;2023-05-20T23:19:52;3.90;;;2.40;;
80510;SDS011;69840;53.040;8.600;2023-05-20T23:24:04;4.18;;;2.90;;
80510;SDS011;69840;53.040;8.600;2023-05-20T23:28:17;6.18;;;3.03;;
80510;SDS011;69840;53.040;8.600;2023-05-20T23:32:30;5.10;;;2.85;;
80510;SDS011;69840;53.040;8.600;2023-05-20T23:36:42;5.07;;;2.60;;
80510;SDS011;69840;53.040;8.600;2023-05-20T23:40:55;6.13;;;3.20;;
80510;SDS011;69840;53.040;8.600;2023-05-20T23:45:08;4.53;;;3.80;;
80510;SDS011;69840;53.040;8.600;2023-05-20T23:49:21;4.30;;;2.35;;
80510;SDS011;69840;53.040;8.600;2023-05-20T23:53:33;5.20;;;2.30;;
80510;SDS011;69840;53.040;8.600;2023-05-20T23:57:46;10.73;;;2.60;;
